Huvudsida
METAR-TAF:

METAR-TAF

Flygplatser :

Kemi-Torneå flygplats

Kemi, Finland

latitud: 65-47N, longitud: 024-35E, höjd: 15 m

Aktuellt väderrapport

Denna rapport gjordes för 33 minuter sedan, klockan 17:50 UTC
Vind 11 kt från syd, varierande mellan sydost och syd/sydväst
Temperatur -5°C
Fuktighet 86%
Tryck 1029 hPa
Sikt 10 km eller mer
Mulet på en höjd av 700 ft

METAR: EFKE 161750Z AUTO 17011KT 140V200 9999 OVC007 M05/M07 Q1029

Tid: 20:23 (18:23 UTC)

Väderprognos

Denna rapport gjordes för 45 minuter sedan, klockan 17:38 UTC
Prognos gäller från 16 kl. 18 UTC till 16 kl. 24 UTC
Vind 9 kt från syd
Sikt 10 km eller mer
Spridda moln på en höjd av 400 ft
Brutna moln på en höjd av 1500 ft
Temporärt
från 16 kl. 18 UTC till 16 kl. 24 UTC
Sikt: 2000 m
Brutna moln på en höjd av 400 ft
lätt snö
Sannolikhet 40%
från 16 kl. 18 UTC till 16 kl. 24 UTC
(lätt) underkylt, duggregn

TAF: EFKE 161738Z 1618/1624 19009KT 9999 SCT004 BKN015 TEMPO 1618/1624 2000 -SN BKN004 PROB40 1618/1624 -FZDZ

Aktuella väderrapporter och prognoser från 4000 flygplatser (METAR- och TAF-rapporter).

De tillgängliga stationerna syns som gula och röda prickar på kartan.

För musen över prickarna för att se namnen på stationerna.

Klicka sedan för att få väderrapporter och prognoser.

För att ändra kartan: Klicka på de gröna knapparna med ett svart kors på för att zooma in; den gröna knappen med ett streck på för att zooma ut; eller på de gröna pilarna för angränsande kartor.


METAR-TAF: